sensor_id;sensor_type;location;lat;lon;timestamp;temperature;humidity
72772;SHT30;60894;42.544;1.516;2022-12-18T00:00:59;1.02;78.69
72772;SHT30;60894;42.544;1.516;2022-12-18T00:03:28;1.01;78.18
72772;SHT30;60894;42.544;1.516;2022-12-18T00:05:56;0.95;79.10
72772;SHT30;60894;42.544;1.516;2022-12-18T00:08:23;0.88;79.28
72772;SHT30;60894;42.544;1.516;2022-12-18T00:10:50;0.83;78.95
72772;SHT30;60894;42.544;1.516;2022-12-18T00:13:17;0.88;79.73
72772;SHT30;60894;42.544;1.516;2022-12-18T00:15:45;0.94;80.90
72772;SHT30;60894;42.544;1.516;2022-12-18T00:18:12;0.97;80.67
72772;SHT30;60894;42.544;1.516;2022-12-18T00:20:39;0.95;78.86
72772;SHT30;60894;42.544;1.516;2022-12-18T00:23:10;0.88;78.73
72772;SHT30;60894;42.544;1.516;2022-12-18T00:25:37;0.83;78.56
72772;SHT30;60894;42.544;1.516;2022-12-18T00:28:04;0.81;78.78
72772;SHT30;60894;42.544;1.516;2022-12-18T00:30:31;0.73;79.58
72772;SHT30;60894;42.544;1.516;2022-12-18T00:32:59;0.74;78.70
72772;SHT30;60894;42.544;1.516;2022-12-18T00:35:26;0.73;79.06
72772;SHT30;60894;42.544;1.516;2022-12-18T00:37:53;0.76;79.15
72772;SHT30;60894;42.544;1.516;2022-12-18T00:40:22;0.83;78.50
72772;SHT30;60894;42.544;1.516;2022-12-18T00:42:49;0.78;78.49
72772;SHT30;60894;42.544;1.516;2022-12-18T00:45:22;0.76;78.71
72772;SHT30;60894;42.544;1.516;2022-12-18T00:47:50;0.70;79.12
72772;SHT30;60894;42.544;1.516;2022-12-18T00:50:17;0.73;79.11
72772;SHT30;60894;42.544;1.516;2022-12-18T00:52:45;0.77;78.99
72772;SHT30;60894;42.544;1.516;2022-12-18T00:55:12;0.73;78.50
72772;SHT30;60894;42.544;1.516;2022-12-18T00:57:41;0.70;78.78
72772;SHT30;60894;42.544;1.516;2022-12-18T01:00:10;0.64;78.82
72772;SHT30;60894;42.544;1.516;2022-12-18T01:02:37;0.58;78.25
72772;SHT30;60894;42.544;1.516;2022-12-18T01:05:05;0.53;78.75
72772;SHT30;60894;42.544;1.516;2022-12-18T01:07:32;0.61;78.99
72772;SHT30;60894;42.544;1.516;2022-12-18T01:09:59;0.85;78.65
72772;SHT30;60894;42.544;1.516;2022-12-18T01:12:26;0.70;78.46
72772;SHT30;60894;42.544;1.516;2022-12-18T01:14:55;0.64;78.03
72772;SHT30;60894;42.544;1.516;2022-12-18T01:17:22;0.64;78.17
72772;SHT30;60894;42.544;1.516;2022-12-18T01:19:49;0.50;78.37
72772;SHT30;60894;42.544;1.516;2022-12-18T01:22:16;0.47;78.68
72772;SHT30;60894;42.544;1.516;2022-12-18T01:24:43;0.47;78.27
72772;SHT30;60894;42.544;1.516;2022-12-18T01:27:10;0.57;78.45
72772;SHT30;60894;42.544;1.516;2022-12-18T01:29:37;0.47;78.48
72772;SHT30;60894;42.544;1.516;2022-12-18T01:32:06;0.53;78.78
72772;SHT30;60894;42.544;1.516;2022-12-18T01:34:33;0.56;78.81
72772;SHT30;60894;42.544;1.516;2022-12-18T01:37:02;0.53;78.17
72772;SHT30;60894;42.544;1.516;2022-12-18T01:39:30;0.46;78.56
72772;SHT30;60894;42.544;1.516;2022-12-18T01:41:57;0.39;78.46
72772;SHT30;60894;42.544;1.516;2022-12-18T01:44:56;0.33;78.27
72772;SHT30;60894;42.544;1.516;2022-12-18T01:47:28;0.36;78.87
72772;SHT30;60894;42.544;1.516;2022-12-18T01:49:59;0.33;79.26
72772;SHT30;60894;42.544;1.516;2022-12-18T01:52:29;0.30;78.78
72772;SHT30;60894;42.544;1.516;2022-12-18T01:54:57;0.35;78.81
72772;SHT30;60894;42.544;1.516;2022-12-18T01:57:26;0.35;79.85
72772;SHT30;60894;42.544;1.516;2022-12-18T01:59:57;0.33;79.30
72772;SHT30;60894;42.544;1.516;2022-12-18T02:02:29;0.32;79.02
72772;SHT30;60894;42.544;1.516;2022-12-18T02:04:57;0.39;79.09
72772;SHT30;60894;42.544;1.516;2022-12-18T02:07:30;0.36;78.91
72772;SHT30;60894;42.544;1.516;2022-12-18T02:10:00;0.37;79.45
72772;SHT30;60894;42.544;1.516;2022-12-18T02:12:36;0.36;78.78
72772;SHT30;60894;42.544;1.516;2022-12-18T02:15:10;0.35;78.63
72772;SHT30;60894;42.544;1.516;2022-12-18T02:17:43;0.27;77.72
72772;SHT30;60894;42.544;1.516;2022-12-18T02:20:17;0.35;77.93
72772;SHT30;60894;42.544;1.516;2022-12-18T02:22:58;0.37;77.87
72772;SHT30;60894;42.544;1.516;2022-12-18T02:25:51;0.37;77.81
72772;SHT30;60894;42.544;1.516;2022-12-18T02:28:22;0.30;78.06
72772;SHT30;60894;42.544;1.516;2022-12-18T02:30:53;0.36;78.36
72772;SHT30;60894;42.544;1.516;2022-12-18T02:33:25;0.33;78.26
72772;SHT30;60894;42.544;1.516;2022-12-18T02:35:54;0.33;78.30
72772;SHT30;60894;42.544;1.516;2022-12-18T02:38:23;0.22;77.50
72772;SHT30;60894;42.544;1.516;2022-12-18T02:40:53;0.26;78.55
72772;SHT30;60894;42.544;1.516;2022-12-18T02:43:20;0.22;78.59
72772;SHT30;60894;42.544;1.516;2022-12-18T02:45:49;0.25;77.93
72772;SHT30;60894;42.544;1.516;2022-12-18T02:48:17;0.15;78.20
72772;SHT30;60894;42.544;1.516;2022-12-18T02:50:55;0.20;78.52
72772;SHT30;60894;42.544;1.516;2022-12-18T02:53:31;0.15;78.60
72772;SHT30;60894;42.544;1.516;2022-12-18T02:56:05;0.10;78.74
72772;SHT30;60894;42.544;1.516;2022-12-18T02:58:40;0.08;78.27
72772;SHT30;60894;42.544;1.516;2022-12-18T03:01:13;0.08;78.17
72772;SHT30;60894;42.544;1.516;2022-12-18T03:03:47;0.10;78.26
72772;SHT30;60894;42.544;1.516;2022-12-18T03:06:21;0.12;78.05
72772;SHT30;60894;42.544;1.516;2022-12-18T03:08:54;0.17;78.61
72772;SHT30;60894;42.544;1.516;2022-12-18T03:11:26;0.09;77.71
72772;SHT30;60894;42.544;1.516;2022-12-18T03:14:10;-0.01;78.34
72772;SHT30;60894;42.544;1.516;2022-12-18T03:16:40;0.02;78.26
72772;SHT30;60894;42.544;1.516;2022-12-18T03:19:11;-0.01;78.36
72772;SHT30;60894;42.544;1.516;2022-12-18T03:21:42;0.03;78.49
72772;SHT30;60894;42.544;1.516;2022-12-18T03:24:10;-0.02;78.35
72772;SHT30;60894;42.544;1.516;2022-12-18T03:26:41;0.01;78.48
72772;SHT30;60894;42.544;1.516;2022-12-18T03:29:14;0.08;78.09
72772;SHT30;60894;42.544;1.516;2022-12-18T03:31:49;-0.05;78.13
72772;SHT30;60894;42.544;1.516;2022-12-18T03:34:22;-0.08;78.93
72772;SHT30;60894;42.544;1.516;2022-12-18T03:36:50;-0.08;78.92
72772;SHT30;60894;42.544;1.516;2022-12-18T03:39:19;-0.05;79.11
72772;SHT30;60894;42.544;1.516;2022-12-18T03:41:52;0.05;78.88
72772;SHT30;60894;42.544;1.516;2022-12-18T03:44:26;0.01;78.45
72772;SHT30;60894;42.544;1.516;2022-12-18T03:46:59;-0.05;78.46
72772;SHT30;60894;42.544;1.516;2022-12-18T03:49:34;-0.09;78.20
72772;SHT30;60894;42.544;1.516;2022-12-18T03:52:06;-0.01;79.16
72772;SHT30;60894;42.544;1.516;2022-12-18T03:54:35;0.03;79.24
72772;SHT30;60894;42.544;1.516;2022-12-18T03:57:06;0.02;80.32
72772;SHT30;60894;42.544;1.516;2022-12-18T03:59:35;0.08;79.46
72772;SHT30;60894;42.544;1.516;2022-12-18T04:02:05;-0.02;78.96
72772;SHT30;60894;42.544;1.516;2022-12-18T04:04:34;-0.04;79.10
72772;SHT30;60894;42.544;1.516;2022-12-18T04:07:02;-0.05;79.28
72772;SHT30;60894;42.544;1.516;2022-12-18T04:09:30;-0.12;79.58
72772;SHT30;60894;42.544;1.516;2022-12-18T04:11:58;-0.06;80.38
72772;SHT30;60894;42.544;1.516;2022-12-18T04:14:27;-0.08;80.49
72772;SHT30;60894;42.544;1.516;2022-12-18T04:16:54;-0.11;80.20
72772;SHT30;60894;42.544;1.516;2022-12-18T04:19:21;-0.11;79.46
72772;SHT30;60894;42.544;1.516;2022-12-18T04:21:48;-0.15;79.04
72772;SHT30;60894;42.544;1.516;2022-12-18T04:24:15;-0.16;78.17
72772;SHT30;60894;42.544;1.516;2022-12-18T04:26:42;-0.22;78.88
72772;SHT30;60894;42.544;1.516;2022-12-18T04:29:08;-0.15;79.19
72772;SHT30;60894;42.544;1.516;2022-12-18T04:31:37;-0.15;78.76
72772;SHT30;60894;42.544;1.516;2022-12-18T04:34:04;-0.14;78.63
72772;SHT30;60894;42.544;1.516;2022-12-18T04:36:31;-0.14;79.23
72772;SHT30;60894;42.544;1.516;2022-12-18T04:38:58;-0.09;78.97
72772;SHT30;60894;42.544;1.516;2022-12-18T04:41:26;-0.12;78.20
72772;SHT30;60894;42.544;1.516;2022-12-18T04:43:53;-0.11;77.95
72772;SHT30;60894;42.544;1.516;2022-12-18T04:46:20;-0.04;78.25
72772;SHT30;60894;42.544;1.516;2022-12-18T04:48:48;-0.14;78.14
72772;SHT30;60894;42.544;1.516;2022-12-18T04:51:15;-0.22;77.96
72772;SHT30;60894;42.544;1.516;2022-12-18T04:53:42;-0.25;78.41
72772;SHT30;60894;42.544;1.516;2022-12-18T04:56:11;-0.26;78.70
72772;SHT30;60894;42.544;1.516;2022-12-18T04:58:40;-0.23;78.64
72772;SHT30;60894;42.544;1.516;2022-12-18T05:01:07;-0.29;78.84
72772;SHT30;60894;42.544;1.516;2022-12-18T05:03:35;-0.30;78.07
72772;SHT30;60894;42.544;1.516;2022-12-18T05:06:04;-0.26;78.40
72772;SHT30;60894;42.544;1.516;2022-12-18T05:08:32;-0.25;78.41
72772;SHT30;60894;42.544;1.516;2022-12-18T05:11:00;-0.23;79.15
72772;SHT30;60894;42.544;1.516;2022-12-18T05:13:27;-0.29;79.02
72772;SHT30;60894;42.544;1.516;2022-12-18T05:15:54;-0.21;78.81
72772;SHT30;60894;42.544;1.516;2022-12-18T05:18:22;-0.30;78.12
72772;SHT30;60894;42.544;1.516;2022-12-18T05:20:50;-0.28;79.26
72772;SHT30;60894;42.544;1.516;2022-12-18T05:23:18;-0.28;80.93
72772;SHT30;60894;42.544;1.516;2022-12-18T05:25:50;-0.28;79.82
72772;SHT30;60894;42.544;1.516;2022-12-18T05:28:17;-0.32;79.15
72772;SHT30;60894;42.544;1.516;2022-12-18T05:30:47;-0.29;79.18
72772;SHT30;60894;42.544;1.516;2022-12-18T05:33:15;-0.25;79.20
72772;SHT30;60894;42.544;1.516;2022-12-18T05:35:42;-0.25;78.86
72772;SHT30;60894;42.544;1.516;2022-12-18T05:38:09;-0.21;79.06
72772;SHT30;60894;42.544;1.516;2022-12-18T05:40:41;-0.33;78.74
72772;SHT30;60894;42.544;1.516;2022-12-18T05:43:08;-0.35;78.75
72772;SHT30;60894;42.544;1.516;2022-12-18T05:45:36;-0.42;78.72
72772;SHT30;60894;42.544;1.516;2022-12-18T05:48:04;-0.42;78.50
72772;SHT30;60894;42.544;1.516;2022-12-18T05:50:34;-0.39;78.52
72772;SHT30;60894;42.544;1.516;2022-12-18T05:53:01;-0.45;78.66
72772;SHT30;60894;42.544;1.516;2022-12-18T05:55:28;-0.40;79.77
72772;SHT30;60894;42.544;1.516;2022-12-18T05:57:56;-0.30;79.78
72772;SHT30;60894;42.544;1.516;2022-12-18T06:00:23;-0.26;79.68
72772;SHT30;60894;42.544;1.516;2022-12-18T06:02:50;-0.28;79.17
72772;SHT30;60894;42.544;1.516;2022-12-18T06:05:17;-0.26;79.31
72772;SHT30;60894;42.544;1.516;2022-12-18T06:07:44;-0.22;79.37
72772;SHT30;60894;42.544;1.516;2022-12-18T06:10:11;-0.19;79.33
72772;SHT30;60894;42.544;1.516;2022-12-18T06:12:38;-0.22;78.90
72772;SHT30;60894;42.544;1.516;2022-12-18T06:15:08;-0.33;79.04
72772;SHT30;60894;42.544;1.516;2022-12-18T06:17:35;-0.33;80.20
72772;SHT30;60894;42.544;1.516;2022-12-18T06:20:03;-0.43;79.82
72772;SHT30;60894;42.544;1.516;2022-12-18T06:22:32;-0.52;79.73
72772;SHT30;60894;42.544;1.516;2022-12-18T06:25:00;-0.39;79.56
72772;SHT30;60894;42.544;1.516;2022-12-18T06:27:27;-0.45;79.25
72772;SHT30;60894;42.544;1.516;2022-12-18T06:29:54;-0.42;79.26
72772;SHT30;60894;42.544;1.516;2022-12-18T06:32:23;-0.35;79.09
72772;SHT30;60894;42.544;1.516;2022-12-18T06:34:50;-0.33;79.26
72772;SHT30;60894;42.544;1.516;2022-12-18T06:37:17;-0.30;79.01
72772;SHT30;60894;42.544;1.516;2022-12-18T06:39:44;-0.35;79.26
72772;SHT30;60894;42.544;1.516;2022-12-18T06:42:11;-0.39;78.64
72772;SHT30;60894;42.544;1.516;2022-12-18T06:44:38;-0.42;79.31
72772;SHT30;60894;42.544;1.516;2022-12-18T06:47:05;-0.46;80.32
72772;SHT30;60894;42.544;1.516;2022-12-18T06:49:34;-0.40;80.09
72772;SHT30;60894;42.544;1.516;2022-12-18T06:52:01;-0.40;79.66
72772;SHT30;60894;42.544;1.516;2022-12-18T06:54:28;-0.48;79.15
72772;SHT30;60894;42.544;1.516;2022-12-18T06:56:56;-0.40;79.80
72772;SHT30;60894;42.544;1.516;2022-12-18T06:59:23;-0.43;79.46
72772;SHT30;60894;42.544;1.516;2022-12-18T07:01:50;-0.49;79.72
72772;SHT30;60894;42.544;1.516;2022-12-18T07:04:17;-0.40;79.89
72772;SHT30;60894;42.544;1.516;2022-12-18T07:06:46;-0.40;79.66
72772;SHT30;60894;42.544;1.516;2022-12-18T07:09:13;-0.46;79.73
72772;SHT30;60894;42.544;1.516;2022-12-18T07:11:40;-0.39;79.94
72772;SHT30;60894;42.544;1.516;2022-12-18T07:14:07;-0.37;78.93
72772;SHT30;60894;42.544;1.516;2022-12-18T07:16:34;-0.43;78.41
72772;SHT30;60894;42.544;1.516;2022-12-18T07:19:01;-0.37;79.19
72772;SHT30;60894;42.544;1.516;2022-12-18T07:21:28;-0.40;79.92
72772;SHT30;60894;42.544;1.516;2022-12-18T07:23:56;-0.39;79.79
72772;SHT30;60894;42.544;1.516;2022-12-18T07:26:23;-0.43;78.96
72772;SHT30;60894;42.544;1.516;2022-12-18T07:28:54;-0.46;79.40
72772;SHT30;60894;42.544;1.516;2022-12-18T07:31:23;-0.48;79.61
72772;SHT30;60894;42.544;1.516;2022-12-18T07:33:51;-0.40;79.26
72772;SHT30;60894;42.544;1.516;2022-12-18T07:36:19;-0.40;78.74
72772;SHT30;60894;42.544;1.516;2022-12-18T07:38:47;-0.36;78.96
72772;SHT30;60894;42.544;1.516;2022-12-18T07:41:16;-0.40;79.18
72772;SHT30;60894;42.544;1.516;2022-12-18T07:43:44;-0.39;79.43
72772;SHT30;60894;42.544;1.516;2022-12-18T07:46:12;-0.32;79.15
72772;SHT30;60894;42.544;1.516;2022-12-18T07:48:40;-0.37;79.09
72772;SHT30;60894;42.544;1.516;2022-12-18T07:51:08;-0.29;79.23
72772;SHT30;60894;42.544;1.516;2022-12-18T07:53:35;-0.36;79.47
72772;SHT30;60894;42.544;1.516;2022-12-18T07:56:06;-0.39;79.10
72772;SHT30;60894;42.544;1.516;2022-12-18T07:58:35;-0.42;78.91
72772;SHT30;60894;42.544;1.516;2022-12-18T08:01:03;-0.39;79.22
72772;SHT30;60894;42.544;1.516;2022-12-18T08:03:30;-0.35;79.60
72772;SHT30;60894;42.544;1.516;2022-12-18T08:05:59;-0.30;79.63
72772;SHT30;60894;42.544;1.516;2022-12-18T08:08:27;-0.32;79.71
72772;SHT30;60894;42.544;1.516;2022-12-18T08:10:54;-0.28;79.44
72772;SHT30;60894;42.544;1.516;2022-12-18T08:13:21;-0.28;79.48
72772;SHT30;60894;42.544;1.516;2022-12-18T08:15:57;-0.23;79.81
72772;SHT30;60894;42.544;1.516;2022-12-18T08:18:24;-0.21;79.61
72772;SHT30;60894;42.544;1.516;2022-12-18T08:20:51;-0.12;79.96
72772;SHT30;60894;42.544;1.516;2022-12-18T08:23:18;-0.14;79.64
72772;SHT30;60894;42.544;1.516;2022-12-18T08:25:45;-0.05;79.59
72772;SHT30;60894;42.544;1.516;2022-12-18T08:28:12;-0.06;79.09
72772;SHT30;60894;42.544;1.516;2022-12-18T08:30:40;0.01;79.22
72772;SHT30;60894;42.544;1.516;2022-12-18T08:33:09;0.01;78.82
72772;SHT30;60894;42.544;1.516;2022-12-18T08:35:36;0.05;79.17
72772;SHT30;60894;42.544;1.516;2022-12-18T08:38:03;0.09;79.22
72772;SHT30;60894;42.544;1.516;2022-12-18T08:40:30;0.15;79.10
72772;SHT30;60894;42.544;1.516;2022-12-18T08:42:57;0.29;78.87
72772;SHT30;60894;42.544;1.516;2022-12-18T08:45:42;0.32;78.78
72772;SHT30;60894;42.544;1.516;2022-12-18T08:48:11;0.43;79.12
72772;SHT30;60894;42.544;1.516;2022-12-18T08:50:38;0.49;78.21
72772;SHT30;60894;42.544;1.516;2022-12-18T08:53:05;0.63;78.57
72772;SHT30;60894;42.544;1.516;2022-12-18T08:55:32;0.73;78.30
72772;SHT30;60894;42.544;1.516;2022-12-18T08:57:59;0.88;77.82
72772;SHT30;60894;42.544;1.516;2022-12-18T09:00:26;1.02;78.06
72772;SHT30;60894;42.544;1.516;2022-12-18T09:02:53;1.05;76.90
72772;SHT30;60894;42.544;1.516;2022-12-18T09:05:21;1.18;76.51
72772;SHT30;60894;42.544;1.516;2022-12-18T09:07:48;1.27;76.25
72772;SHT30;60894;42.544;1.516;2022-12-18T09:10:15;1.50;76.51
72772;SHT30;60894;42.544;1.516;2022-12-18T09:12:42;1.59;74.98
72772;SHT30;60894;42.544;1.516;2022-12-18T09:15:10;1.77;75.99
72772;SHT30;60894;42.544;1.516;2022-12-18T09:17:37;1.93;75.32
72772;SHT30;60894;42.544;1.516;2022-12-18T09:20:05;1.97;74.70
72772;SHT30;60894;42.544;1.516;2022-12-18T09:22:33;2.15;74.06
72772;SHT30;60894;42.544;1.516;2022-12-18T09:25:00;2.20;73.41
72772;SHT30;60894;42.544;1.516;2022-12-18T09:27:27;2.38;74.21
72772;SHT30;60894;42.544;1.516;2022-12-18T09:29:54;2.58;73.79
72772;SHT30;60894;42.544;1.516;2022-12-18T09:32:21;2.82;73.19
72772;SHT30;60894;42.544;1.516;2022-12-18T09:34:48;2.93;71.31
72772;SHT30;60894;42.544;1.516;2022-12-18T09:37:15;3.13;71.78
72772;SHT30;60894;42.544;1.516;2022-12-18T09:39:44;3.37;73.40
72772;SHT30;60894;42.544;1.516;2022-12-18T09:42:14;3.45;72.12
72772;SHT30;60894;42.544;1.516;2022-12-18T09:44:45;3.65;71.18
72772;SHT30;60894;42.544;1.516;2022-12-18T09:47:18;3.72;69.38
72772;SHT30;60894;42.544;1.516;2022-12-18T09:49:49;4.06;70.04
72772;SHT30;60894;42.544;1.516;2022-12-18T09:52:21;4.06;68.67
72772;SHT30;60894;42.544;1.516;2022-12-18T09:54:54;4.23;68.55
72772;SHT30;60894;42.544;1.516;2022-12-18T09:57:23;4.36;67.86
72772;SHT30;60894;42.544;1.516;2022-12-18T09:59:55;4.47;66.88
72772;SHT30;60894;42.544;1.516;2022-12-18T10:02:25;4.68;67.04
72772;SHT30;60894;42.544;1.516;2022-12-18T10:05:03;4.83;65.97
72772;SHT30;60894;42.544;1.516;2022-12-18T10:07:41;4.95;64.43
72772;SHT30;60894;42.544;1.516;2022-12-18T10:10:23;5.24;64.52
72772;SHT30;60894;42.544;1.516;2022-12-18T10:12:58;5.39;63.61
72772;SHT30;60894;42.544;1.516;2022-12-18T10:15:33;5.49;63.25
72772;SHT30;60894;42.544;1.516;2022-12-18T10:18:15;5.85;63.92
72772;SHT30;60894;42.544;1.516;2022-12-18T10:20:47;6.06;61.46
72772;SHT30;60894;42.544;1.516;2022-12-18T10:23:20;6.27;61.46
72772;SHT30;60894;42.544;1.516;2022-12-18T10:25:53;6.37;59.89
72772;SHT30;60894;42.544;1.516;2022-12-18T10:28:24;6.48;60.07
72772;SHT30;60894;42.544;1.516;2022-12-18T10:30:52;6.88;59.36
72772;SHT30;60894;42.544;1.516;2022-12-18T10:33:21;7.03;58.49
72772;SHT30;60894;42.544;1.516;2022-12-18T10:35:51;7.16;57.07
72772;SHT30;60894;42.544;1.516;2022-12-18T10:38:23;6.99;56.09
72772;SHT30;60894;42.544;1.516;2022-12-18T10:40:54;7.13;56.57
72772;SHT30;60894;42.544;1.516;2022-12-18T10:43:24;7.13;54.30
72772;SHT30;60894;42.544;1.516;2022-12-18T10:46:03;7.30;54.78
72772;SHT30;60894;42.544;1.516;2022-12-18T10:48:33;7.28;54.70
72772;SHT30;60894;42.544;1.516;2022-12-18T10:51:02;7.40;53.67
72772;SHT30;60894;42.544;1.516;2022-12-18T10:53:31;7.89;55.30
72772;SHT30;60894;42.544;1.516;2022-12-18T10:55:59;8.20;53.40
72772;SHT30;60894;42.544;1.516;2022-12-18T10:58:29;8.51;51.98
72772;SHT30;60894;42.544;1.516;2022-12-18T11:01:06;8.78;52.74
72772;SHT30;60894;42.544;1.516;2022-12-18T11:03:35;9.08;51.80
72772;SHT30;60894;42.544;1.516;2022-12-18T11:06:05;9.02;50.76
72772;SHT30;60894;42.544;1.516;2022-12-18T11:08:33;9.19;50.55
72772;SHT30;60894;42.544;1.516;2022-12-18T11:11:02;9.39;49.54
72772;SHT30;60894;42.544;1.516;2022-12-18T11:13:30;9.35;48.90
72772;SHT30;60894;42.544;1.516;2022-12-18T11:15:58;9.23;48.16
72772;SHT30;60894;42.544;1.516;2022-12-18T11:18:28;9.11;49.87
72772;SHT30;60894;42.544;1.516;2022-12-18T11:20:57;8.94;50.79
72772;SHT30;60894;42.544;1.516;2022-12-18T11:23:26;8.98;51.06
72772;SHT30;60894;42.544;1.516;2022-12-18T11:25:56;8.85;53.07
72772;SHT30;60894;42.544;1.516;2022-12-18T11:28:39;8.67;53.33
72772;SHT30;60894;42.544;1.516;2022-12-18T11:31:20;8.85;55.13
72772;SHT30;60894;42.544;1.516;2022-12-18T11:34:02;9.16;54.46
72772;SHT30;60894;42.544;1.516;2022-12-18T11:36:34;9.23;53.60
72772;SHT30;60894;42.544;1.516;2022-12-18T11:39:10;9.62;54.31
72772;SHT30;60894;42.544;1.516;2022-12-18T11:41:42;9.94;52.86
72772;SHT30;60894;42.544;1.516;2022-12-18T11:44:36;10.27;49.98
72772;SHT30;60894;42.544;1.516;2022-12-18T11:47:09;10.13;48.57
72772;SHT30;60894;42.544;1.516;2022-12-18T11:49:41;10.00;47.88
72772;SHT30;60894;42.544;1.516;2022-12-18T11:52:13;10.25;47.69
72772;SHT30;60894;42.544;1.516;2022-12-18T11:54:41;10.73;46.85
72772;SHT30;60894;42.544;1.516;2022-12-18T11:57:16;10.92;45.25
72772;SHT30;60894;42.544;1.516;2022-12-18T11:59:56;11.34;45.28
72772;SHT30;60894;42.544;1.516;2022-12-18T12:02:41;11.22;44.49
72772;SHT30;60894;42.544;1.516;2022-12-18T12:05:33;11.44;44.98
72772;SHT30;60894;42.544;1.516;2022-12-18T12:08:09;11.89;44.93
72772;SHT30;60894;42.544;1.516;2022-12-18T12:10:46;11.98;43.42
72772;SHT30;60894;42.544;1.516;2022-12-18T12:13:28;11.58;43.17
72772;SHT30;60894;42.544;1.516;2022-12-18T12:16:07;11.23;44.41
72772;SHT30;60894;42.544;1.516;2022-12-18T12:18:46;11.04;45.55
72772;SHT30;60894;42.544;1.516;2022-12-18T12:21:20;11.54;46.25
72772;SHT30;60894;42.544;1.516;2022-12-18T12:23:58;11.91;45.28
72772;SHT30;60894;42.544;1.516;2022-12-18T12:26:32;12.02;45.31
72772;SHT30;60894;42.544;1.516;2022-12-18T12:29:06;11.51;44.58
72772;SHT30;60894;42.544;1.516;2022-12-18T12:31:57;11.24;46.32
72772;SHT30;60894;42.544;1.516;2022-12-18T12:34:35;11.63;45.70
72772;SHT30;60894;42.544;1.516;2022-12-18T12:37:18;11.57;45.72
72772;SHT30;60894;42.544;1.516;2022-12-18T12:39:47;11.54;46.35
72772;SHT30;60894;42.544;1.516;2022-12-18T12:42:18;11.85;45.64
72772;SHT30;60894;42.544;1.516;2022-12-18T12:45:01;11.78;45.72
72772;SHT30;60894;42.544;1.516;2022-12-18T12:47:36;12.04;46.34
72772;SHT30;60894;42.544;1.516;2022-12-18T12:50:12;11.89;45.88
72772;SHT30;60894;42.544;1.516;2022-12-18T12:52:43;12.22;45.68
72772;SHT30;60894;42.544;1.516;2022-12-18T12:55:15;12.37;45.48
72772;SHT30;60894;42.544;1.516;2022-12-18T12:57:46;11.94;46.47
72772;SHT30;60894;42.544;1.516;2022-12-18T13:00:18;12.43;46.27
72772;SHT30;60894;42.544;1.516;2022-12-18T13:02:51;12.40;45.44
72772;SHT30;60894;42.544;1.516;2022-12-18T13:05:25;12.30;45.33
72772;SHT30;60894;42.544;1.516;2022-12-18T13:07:57;12.97;45.24
72772;SHT30;60894;42.544;1.516;2022-12-18T13:10:36;12.94;44.15
72772;SHT30;60894;42.544;1.516;2022-12-18T13:13:05;13.03;44.35
72772;SHT30;60894;42.544;1.516;2022-12-18T13:15:37;13.14;44.08
72772;SHT30;60894;42.544;1.516;2022-12-18T13:18:18;13.24;44.91
72772;SHT30;60894;42.544;1.516;2022-12-18T13:20:47;13.41;44.68
72772;SHT30;60894;42.544;1.516;2022-12-18T13:23:33;13.44;44.23
72772;SHT30;60894;42.544;1.516;2022-12-18T13:26:29;13.39;44.79
72772;SHT30;60894;42.544;1.516;2022-12-18T13:28:58;13.10;44.93
72772;SHT30;60894;42.544;1.516;2022-12-18T13:34:32;13.54;44.63
72772;SHT30;60894;42.544;1.516;2022-12-18T13:39:59;11.78;47.97
72772;SHT30;60894;42.544;1.516;2022-12-18T13:42:38;11.79;48.04
72772;SHT30;60894;42.544;1.516;2022-12-18T13:45:41;11.82;47.92
72772;SHT30;60894;42.544;1.516;2022-12-18T13:48:17;12.04;48.58
72772;SHT30;60894;42.544;1.516;2022-12-18T13:50:52;12.04;48.98
72772;SHT30;60894;42.544;1.516;2022-12-18T13:53:22;12.23;48.59
72772;SHT30;60894;42.544;1.516;2022-12-18T13:55:51;12.49;47.44
72772;SHT30;60894;42.544;1.516;2022-12-18T13:58:18;12.55;47.44
72772;SHT30;60894;42.544;1.516;2022-12-18T14:00:45;11.98;49.18
72772;SHT30;60894;42.544;1.516;2022-12-18T14:03:18;11.63;49.54
72772;SHT30;60894;42.544;1.516;2022-12-18T14:05:46;11.54;50.35
72772;SHT30;60894;42.544;1.516;2022-12-18T14:08:20;11.54;50.46
72772;SHT30;60894;42.544;1.516;2022-12-18T14:10:48;11.65;50.13
72772;SHT30;60894;42.544;1.516;2022-12-18T14:13:20;11.79;49.82
72772;SHT30;60894;42.544;1.516;2022-12-18T14:15:49;11.91;49.49
72772;SHT30;60894;42.544;1.516;2022-12-18T14:18:20;11.13;51.55
72772;SHT30;60894;42.544;1.516;2022-12-18T14:20:49;10.46;53.74
72772;SHT30;60894;42.544;1.516;2022-12-18T14:23:29;10.13;54.72
72772;SHT30;60894;42.544;1.516;2022-12-18T14:25:57;9.43;56.34
72772;SHT30;60894;42.544;1.516;2022-12-18T14:28:25;9.23;57.47
72772;SHT30;60894;42.544;1.516;2022-12-18T14:30:52;9.14;58.29
72772;SHT30;60894;42.544;1.516;2022-12-18T14:33:22;9.01;58.47
72772;SHT30;60894;42.544;1.516;2022-12-18T14:35:54;8.89;58.88
72772;SHT30;60894;42.544;1.516;2022-12-18T14:38:25;8.85;59.58
72772;SHT30;60894;42.544;1.516;2022-12-18T14:40:55;8.70;60.04
72772;SHT30;60894;42.544;1.516;2022-12-18T14:43:23;8.16;61.06
72772;SHT30;60894;42.544;1.516;2022-12-18T14:45:50;7.89;61.80
72772;SHT30;60894;42.544;1.516;2022-12-18T14:48:19;7.55;63.40
72772;SHT30;60894;42.544;1.516;2022-12-18T14:50:55;7.50;63.98
72772;SHT30;60894;42.544;1.516;2022-12-18T14:53:31;7.71;64.14
72772;SHT30;60894;42.544;1.516;2022-12-18T14:56:00;7.67;63.72
72772;SHT30;60894;42.544;1.516;2022-12-18T14:58:28;7.47;64.30
72772;SHT30;60894;42.544;1.516;2022-12-18T15:00:55;7.30;65.00
72772;SHT30;60894;42.544;1.516;2022-12-18T15:03:22;7.24;65.57
72772;SHT30;60894;42.544;1.516;2022-12-18T15:05:49;7.27;65.39
72772;SHT30;60894;42.544;1.516;2022-12-18T15:08:32;7.09;66.18
72772;SHT30;60894;42.544;1.516;2022-12-18T15:11:02;7.14;65.90
72772;SHT30;60894;42.544;1.516;2022-12-18T15:13:29;7.10;66.04
72772;SHT30;60894;42.544;1.516;2022-12-18T15:15:57;7.09;66.49
72772;SHT30;60894;42.544;1.516;2022-12-18T15:18:30;7.17;66.30
72772;SHT30;60894;42.544;1.516;2022-12-18T15:21:00;7.26;65.69
72772;SHT30;60894;42.544;1.516;2022-12-18T15:23:36;6.96;66.75
72772;SHT30;60894;42.544;1.516;2022-12-18T15:26:07;7.01;66.61
72772;SHT30;60894;42.544;1.516;2022-12-18T15:28:38;6.97;66.73
72772;SHT30;60894;42.544;1.516;2022-12-18T15:31:19;6.93;67.16
72772;SHT30;60894;42.544;1.516;2022-12-18T15:34:02;6.59;67.32
72772;SHT30;60894;42.544;1.516;2022-12-18T15:36:32;6.24;68.52
72772;SHT30;60894;42.544;1.516;2022-12-18T15:39:02;6.16;69.44
72772;SHT30;60894;42.544;1.516;2022-12-18T15:41:32;6.31;68.89
72772;SHT30;60894;42.544;1.516;2022-12-18T15:43:59;6.37;69.36
72772;SHT30;60894;42.544;1.516;2022-12-18T15:46:26;6.31;69.14
72772;SHT30;60894;42.544;1.516;2022-12-18T15:48:54;6.21;69.66
72772;SHT30;60894;42.544;1.516;2022-12-18T15:51:23;6.10;69.83
72772;SHT30;60894;42.544;1.516;2022-12-18T15:53:53;6.07;69.77
72772;SHT30;60894;42.544;1.516;2022-12-18T15:56:22;6.16;69.63
72772;SHT30;60894;42.544;1.516;2022-12-18T15:59:11;6.14;69.64
72772;SHT30;60894;42.544;1.516;2022-12-18T16:01:39;6.11;69.51
72772;SHT30;60894;42.544;1.516;2022-12-18T16:04:08;6.06;69.73
72772;SHT30;60894;42.544;1.516;2022-12-18T16:06:35;5.96;70.27